Time;durP1;ratioP1;P1;durP2;ratioP2;P2;SDS_P1;SDS_P2;PMS_P1;PMS_P2;Temp;Humidity;BMP_temperature;BMP_pressure;BME280_temperature;BME280_humidity;BME280_pressure;Samples;Min_cycle;Max_cycle;Signal;HPM_P1;HPM_P2
2022/04/21 00:01:31;;;;;;;;;;;8.40;99.90;;;;;;5113976;28;19923;-47
2022/04/21 00:03:56;;;;;;;;;;;8.40;99.90;;;;;;5113891;28;19924;-46
2022/04/21 00:06:22;;;;;;;;;;;8.30;99.90;;;;;;5113764;28;19949;-48
2022/04/21 00:08:47;;;;;;;;;;;8.30;99.90;;;;;;5113884;28;20015;-47
2022/04/21 00:11:13;;;;;;;;;;;8.20;99.90;;;;;;5113778;28;19931;-48
2022/04/21 00:13:38;;;;;;;;;;;8.20;99.90;;;;;;5113605;28;19927;-49
2022/04/21 00:16:04;;;;;;;;;;;8.20;99.90;;;;;;5113750;28;19923;-47
2022/04/21 00:18:30;;;;;;;;;;;8.10;99.90;;;;;;5113615;28;19924;-47
2022/04/21 00:20:58;;;;;;;;;;;8.10;99.90;;;;;;5095407;28;20014;-47
2022/04/21 00:23:28;;;;;;;;;;;8.10;99.90;;;;;;5113599;28;19927;-49
2022/04/21 00:25:54;;;;;;;;;;;8.00;99.90;;;;;;5113710;28;19923;-47
2022/04/21 00:28:20;;;;;;;;;;;8.10;99.90;;;;;;5113717;28;19924;-47
2022/04/21 00:30:45;;;;;;;;;;;8.00;99.90;;;;;;5113623;28;19931;-47
2022/04/21 00:33:11;;;;;;;;;;;8.00;99.90;;;;;;5113517;28;19924;-51
2022/04/21 00:35:36;;;;;;;;;;;8.00;99.90;;;;;;5095395;28;20015;-49
2022/04/21 00:38:02;;;;;;;;;;;8.00;99.90;;;;;;5113523;28;19928;-48
2022/04/21 00:40:29;;;;;;;;;;;8.00;99.90;;;;;;5113197;28;20015;-46
2022/04/21 00:42:55;;;;;;;;;;;8.00;99.90;;;;;;5113735;28;19976;-47
2022/04/21 00:45:20;;;;;;;;;;;7.90;99.90;;;;;;5113558;28;19923;-49
2022/04/21 00:47:46;;;;;;;;;;;7.90;99.90;;;;;;5113716;28;20015;-47
2022/04/21 00:50:13;;;;;;;;;;;7.90;99.90;;;;;;5113426;28;19935;-46
2022/04/21 00:52:39;;;;;;;;;;;7.90;99.90;;;;;;5113028;28;20502;-48
2022/04/21 00:55:05;;;;;;;;;;;7.90;99.90;;;;;;5094932;28;19932;-51
2022/04/21 00:57:31;;;;;;;;;;;7.80;99.90;;;;;;5113443;28;19923;-47
2022/04/21 00:59:57;;;;;;;;;;;7.80;99.90;;;;;;5113341;28;19924;-49
2022/04/21 01:05:08;;;;;;;;;;;7.80;99.90;;;;;;5113327;28;19977;-49
2022/04/21 01:07:34;;;;;;;;;;;7.80;99.90;;;;;;5113102;28;19924;-49
2022/04/21 01:09:59;;;;;;;;;;;7.70;99.90;;;;;;5113156;28;19924;-49
2022/04/21 01:12:25;;;;;;;;;;;7.70;99.90;;;;;;5113255;28;20045;-48
2022/04/21 01:14:50;;;;;;;;;;;7.70;99.90;;;;;;5113237;28;19931;-47
2022/04/21 01:17:16;;;;;;;;;;;7.60;99.90;;;;;;5114103;28;19923;-49
2022/04/21 01:19:41;;;;;;;;;;;7.60;99.90;;;;;;5116791;28;19924;-48
2022/04/21 01:22:10;;;;;;;;;;;7.60;99.90;;;;;;5116732;28;19923;-46
2022/04/21 01:24:36;;;;;;;;;;;7.60;99.90;;;;;;5116965;28;19924;-48
2022/04/21 01:27:02;;;;;;;;;;;7.50;99.90;;;;;;5116707;28;19930;-50
2022/04/21 01:29:27;;;;;;;;;;;7.50;99.90;;;;;;5116823;28;19924;-46
2022/04/21 01:31:53;;;;;;;;;;;7.50;99.90;;;;;;5116630;28;19923;-46
2022/04/21 01:34:19;;;;;;;;;;;7.50;99.90;;;;;;5116623;28;20396;-47
2022/04/21 01:42:16;;;;;;;;;;;7.40;99.90;;;;;;5116273;28;20365;-49
2022/04/21 01:44:41;;;;;;;;;;;7.40;99.90;;;;;;5116418;28;20365;-48
2022/04/21 01:47:06;;;;;;;;;;;7.40;99.90;;;;;;5116776;28;19937;-50
2022/04/21 01:49:32;;;;;;;;;;;7.40;99.90;;;;;;5097943;28;19928;-49
2022/04/21 01:51:58;;;;;;;;;;;7.40;99.90;;;;;;5115995;28;19923;-50
2022/04/21 01:54:23;;;;;;;;;;;7.40;99.90;;;;;;5116072;28;19931;-49
2022/04/21 01:56:49;;;;;;;;;;;7.30;99.90;;;;;;5116163;28;19969;-48
2022/04/21 01:59:14;;;;;;;;;;;7.30;99.90;;;;;;5098019;28;20381;-46
2022/04/21 02:01:39;;;;;;;;;;;7.30;99.90;;;;;;5115901;28;19949;-47
2022/04/21 02:04:05;;;;;;;;;;;7.30;99.90;;;;;;5115910;28;20014;-47
2022/04/21 02:06:30;;;;;;;;;;;7.20;99.90;;;;;;5116039;28;20392;-52
2022/04/21 02:08:57;;;;;;;;;;;7.20;99.90;;;;;;5115836;28;20020;-46
2022/04/21 02:11:22;;;;;;;;;;;7.20;99.90;;;;;;5115829;28;19924;-47
2022/04/21 02:13:48;;;;;;;;;;;7.20;99.90;;;;;;5115807;28;19946;-49
2022/04/21 02:16:13;;;;;;;;;;;7.10;99.90;;;;;;5115593;28;19924;-50
2022/04/21 02:18:39;;;;;;;;;;;7.10;99.90;;;;;;5116024;28;20015;-48
2022/04/21 02:21:04;;;;;;;;;;;7.10;99.90;;;;;;5115701;28;19930;-48
2022/04/21 02:23:30;;;;;;;;;;;7.10;99.90;;;;;;5115964;28;20285;-47
2022/04/21 02:25:55;;;;;;;;;;;7.10;99.90;;;;;;5115574;28;19923;-49
2022/04/21 02:28:22;;;;;;;;;;;7.00;99.90;;;;;;5114950;28;19933;-52
2022/04/21 02:30:48;;;;;;;;;;;7.00;99.90;;;;;;5114990;28;20011;-49
2022/04/21 02:33:13;;;;;;;;;;;7.00;99.90;;;;;;5115514;28;20007;-48
2022/04/21 02:35:39;;;;;;;;;;;7.00;99.90;;;;;;5115462;28;19928;-47
2022/04/21 02:38:04;;;;;;;;;;;7.00;99.90;;;;;;5115382;28;20384;-50
2022/04/21 02:40:30;;;;;;;;;;;7.00;99.90;;;;;;5115213;28;19923;-47
2022/04/21 02:42:55;;;;;;;;;;;7.00;99.90;;;;;;5115158;28;19967;-46
2022/04/21 02:45:21;;;;;;;;;;;6.90;99.90;;;;;;5115198;28;20420;-49
2022/04/21 02:47:48;;;;;;;;;;;6.90;99.90;;;;;;5115280;28;19927;-47
2022/04/21 02:50:14;;;;;;;;;;;6.90;99.90;;;;;;5115130;28;19931;-45
2022/04/21 02:52:40;;;;;;;;;;;6.80;99.90;;;;;;5114851;28;19923;-46
2022/04/21 02:57:51;;;;;;;;;;;6.80;99.90;;;;;;5114927;28;19931;-51
2022/04/21 03:00:16;;;;;;;;;;;6.80;99.90;;;;;;5114989;28;19931;-48
2022/04/21 03:02:42;;;;;;;;;;;6.80;99.90;;;;;;5114879;28;19924;-48
2022/04/21 03:05:08;;;;;;;;;;;6.70;99.90;;;;;;5114650;28;19924;-48
2022/04/21 03:07:34;;;;;;;;;;;6.70;99.90;;;;;;5114825;28;19924;-49
2022/04/21 03:09:59;;;;;;;;;;;6.70;99.90;;;;;;5114921;28;19924;-47
2022/04/21 03:12:26;;;;;;;;;;;6.70;99.90;;;;;;5114609;28;19975;-50
2022/04/21 03:14:52;;;;;;;;;;;6.70;99.90;;;;;;5114726;28;19970;-50
2022/04/21 03:17:18;;;;;;;;;;;6.70;99.90;;;;;;5114666;28;20035;-50
2022/04/21 03:19:44;;;;;;;;;;;6.70;99.90;;;;;;5114505;28;19924;-46
2022/04/21 03:24:54;;;;;;;;;;;6.60;99.90;;;;;;5114378;28;19931;-49
2022/04/21 03:27:19;;;;;;;;;;;6.60;99.90;;;;;;5114458;28;19923;-50
2022/04/21 03:29:45;;;;;;;;;;;6.60;99.90;;;;;;5114442;28;20327;-48
2022/04/21 03:32:13;;;;;;;;;;;6.50;99.90;;;;;;5114185;28;19962;-46
2022/04/21 03:34:42;;;;;;;;;;;6.50;99.90;;;;;;5114220;28;19923;-48
2022/04/21 03:37:08;;;;;;;;;;;6.50;99.90;;;;;;5114299;28;20010;-52
2022/04/21 03:39:35;;;;;;;;;;;6.50;99.90;;;;;;5113838;28;19930;-49
2022/04/21 03:42:01;;;;;;;;;;;6.50;99.90;;;;;;5114340;28;19977;-50
2022/04/21 03:44:27;;;;;;;;;;;6.50;99.90;;;;;;5114245;28;19923;-46
2022/04/21 03:46:57;;;;;;;;;;;6.50;99.90;;;;;;5114088;28;19946;-48
2022/04/21 03:49:24;;;;;;;;;;;6.40;99.90;;;;;;5114034;28;19975;-45
2022/04/21 03:51:49;;;;;;;;;;;6.40;99.90;;;;;;5113764;28;19953;-49
2022/04/21 03:54:15;;;;;;;;;;;6.40;99.90;;;;;;5113724;28;19924;-48
2022/04/21 03:56:40;;;;;;;;;;;6.30;99.90;;;;;;5095975;28;19924;-49
2022/04/21 03:59:06;;;;;;;;;;;6.30;99.90;;;;;;5113920;28;19931;-47
2022/04/21 04:01:31;;;;;;;;;;;6.30;99.90;;;;;;5114291;28;19924;-47
2022/04/21 04:03:57;;;;;;;;;;;6.30;99.90;;;;;;5113912;28;20328;-50
2022/04/21 04:11:50;;;;;;;;;;;6.20;99.90;;;;;;5095502;28;20347;-51
2022/04/21 04:14:16;;;;;;;;;;;6.20;99.90;;;;;;5113784;28;20010;-49
2022/04/21 04:16:41;;;;;;;;;;;6.20;99.90;;;;;;5113663;28;20317;-51
2022/04/21 04:19:10;;;;;;;;;;;6.20;99.90;;;;;;5113583;28;19924;-47
2022/04/21 04:21:36;;;;;;;;;;;6.10;99.90;;;;;;5113808;28;20297;-50
2022/04/21 04:24:02;;;;;;;;;;;6.10;99.90;;;;;;5095773;28;19924;-51
2022/04/21 04:26:27;;;;;;;;;;;6.10;99.90;;;;;;5113655;28;20390;-48
2022/04/21 04:28:53;;;;;;;;;;;6.10;99.90;;;;;;5113580;28;20355;-50
2022/04/21 04:31:19;;;;;;;;;;;6.20;99.90;;;;;;5113500;28;19924;-49
2022/04/21 04:33:44;;;;;;;;;;;6.20;99.90;;;;;;5113404;28;19930;-50
2022/04/21 04:36:10;;;;;;;;;;;6.20;99.90;;;;;;5113729;28;19923;-48
2022/04/21 04:38:36;;;;;;;;;;;6.10;99.90;;;;;;5113449;28;20289;-48
2022/04/21 04:42:16;;;;;;;;;;;6.20;99.90;;;;;;5113482;28;20019;-47
2022/04/21 04:43:47;;;;;;;;;;;6.10;99.90;;;;;;5113387;28;20019;-50
2022/04/21 04:48:56;;;;;;;;;;;6.20;99.90;;;;;;5113387;28;20331;-48
2022/04/21 04:51:22;;;;;;;;;;;6.20;99.90;;;;;;5110802;28;20162;-50
2022/04/21 04:53:47;;;;;;;;;;;6.20;99.90;;;;;;5117047;28;20006;-47
2022/04/21 04:56:14;;;;;;;;;;;6.20;99.90;;;;;;5117393;28;19924;-47
2022/04/21 04:58:39;;;;;;;;;;;6.20;99.90;;;;;;5117288;28;20393;-48
2022/04/21 05:01:05;;;;;;;;;;;6.30;99.90;;;;;;5117298;28;19977;-50
2022/04/21 05:03:30;;;;;;;;;;;6.30;99.90;;;;;;5117324;28;19931;-49
2022/04/21 05:05:56;;;;;;;;;;;6.30;99.90;;;;;;5117129;28;19928;-50
2022/04/21 05:08:21;;;;;;;;;;;6.40;99.90;;;;;;5117278;28;20393;-48
2022/04/21 05:10:47;;;;;;;;;;;6.40;99.90;;;;;;5117106;28;19924;-49
2022/04/21 05:13:13;;;;;;;;;;;6.40;99.90;;;;;;5098796;28;20438;-47
2022/04/21 05:15:38;;;;;;;;;;;6.50;99.90;;;;;;5116919;28;19924;-46
2022/04/21 05:18:04;;;;;;;;;;;6.50;99.90;;;;;;5098684;28;20389;-46
2022/04/21 05:20:29;;;;;;;;;;;6.60;99.90;;;;;;5116854;28;20035;-46
2022/04/21 05:23:04;;;;;;;;;;;6.60;99.90;;;;;;5116791;28;19955;-48
2022/04/21 05:25:31;;;;;;;;;;;6.70;99.90;;;;;;5116791;28;19993;-47
2022/04/21 05:27:57;;;;;;;;;;;6.70;99.90;;;;;;5116464;28;20392;-47
2022/04/21 05:33:09;;;;;;;;;;;6.80;99.90;;;;;;5116544;28;19930;-49
2022/04/21 05:35:35;;;;;;;;;;;6.90;99.90;;;;;;5116544;28;20297;-49
2022/04/21 05:38:01;;;;;;;;;;;7.00;99.90;;;;;;5098248;28;19924;-47
2022/04/21 05:40:27;;;;;;;;;;;7.30;99.90;;;;;;5116370;28;19928;-46
2022/04/21 05:42:54;;;;;;;;;;;8.30;99.90;;;;;;5098044;28;20449;-52
2022/04/21 05:45:20;;;;;;;;;;;9.40;99.90;;;;;;5098430;28;19923;-49
2022/04/21 05:47:46;;;;;;;;;;;10.20;99.90;;;;;;5116373;28;20342;-46
2022/04/21 05:50:12;;;;;;;;;;;10.70;99.90;;;;;;5116271;28;19931;-49
2022/04/21 05:52:38;;;;;;;;;;;11.10;99.90;;;;;;5115908;28;19923;-50
2022/04/21 05:55:04;;;;;;;;;;;11.90;99.90;;;;;;5115968;28;20292;-46
2022/04/21 05:57:29;;;;;;;;;;;12.20;99.90;;;;;;5116043;28;19924;-48
2022/04/21 05:59:55;;;;;;;;;;;12.20;99.90;;;;;;5116078;28;19931;-48
2022/04/21 06:02:20;;;;;;;;;;;12.60;99.90;;;;;;5116264;28;19946;-48
2022/04/21 06:04:46;;;;;;;;;;;13.00;99.90;;;;;;5097614;28;19924;-49
2022/04/21 06:07:11;;;;;;;;;;;13.30;99.90;;;;;;5097658;28;20014;-47
2022/04/21 06:09:37;;;;;;;;;;;13.00;99.90;;;;;;5115776;28;20311;-49
2022/04/21 06:12:03;;;;;;;;;;;13.20;99.90;;;;;;5115981;28;19936;-48
2022/04/21 06:14:29;;;;;;;;;;;13.40;99.90;;;;;;5115961;28;20023;-48
2022/04/21 06:16:54;;;;;;;;;;;13.40;99.90;;;;;;5115830;28;19967;-51
2022/04/21 06:19:20;;;;;;;;;;;13.60;99.90;;;;;;5115627;28;20014;-47
2022/04/21 06:21:45;;;;;;;;;;;13.70;99.90;;;;;;5115565;28;19930;-50
2022/04/21 06:24:11;;;;;;;;;;;13.90;98.70;;;;;;5115445;28;19924;-49
2022/04/21 06:26:36;;;;;;;;;;;13.90;97.00;;;;;;5115542;28;19997;-50
2022/04/21 06:29:02;;;;;;;;;;;13.90;96.40;;;;;;5115847;28;20370;-49
2022/04/21 06:31:28;;;;;;;;;;;14.30;95.80;;;;;;5115652;28;19927;-48
2022/04/21 06:33:53;;;;;;;;;;;14.20;93.40;;;;;;5115367;28;19927;-49
2022/04/21 06:36:19;;;;;;;;;;;14.10;92.10;;;;;;5115280;28;19931;-49
2022/04/21 06:38:44;;;;;;;;;;;14.10;93.10;;;;;;5115171;28;19931;-49
2022/04/21 06:41:11;;;;;;;;;;;14.30;91.40;;;;;;5115348;28;19923;-47
2022/04/21 06:49:05;;;;;;;;;;;15.10;87.60;;;;;;5115076;28;19924;-52
2022/04/21 06:51:31;;;;;;;;;;;15.10;82.20;;;;;;5115288;28;20377;-50
2022/04/21 06:53:56;;;;;;;;;;;14.50;82.40;;;;;;5114928;28;19923;-52
2022/04/21 06:56:22;;;;;;;;;;;14.50;82.20;;;;;;5115304;28;20380;-47
2022/04/21 06:58:47;;;;;;;;;;;14.20;82.10;;;;;;5114910;28;19928;-48
2022/04/21 07:01:12;;;;;;;;;;;14.60;84.40;;;;;;5114819;28;19930;-47
2022/04/21 07:03:38;;;;;;;;;;;14.40;80.20;;;;;;5114826;28;19924;-50
2022/04/21 07:06:04;;;;;;;;;;;14.30;81.30;;;;;;5114854;28;19930;-48
2022/04/21 07:08:29;;;;;;;;;;;14.50;82.90;;;;;;5114712;28;19924;-48
2022/04/21 07:10:55;;;;;;;;;;;14.50;81.90;;;;;;5114973;28;20376;-48
2022/04/21 07:13:21;;;;;;;;;;;15.30;80.40;;;;;;5114728;28;19935;-48
2022/04/21 07:15:47;;;;;;;;;;;15.40;79.10;;;;;;5114119;28;19924;-48
2022/04/21 07:18:13;;;;;;;;;;;14.90;77.60;;;;;;5096243;28;19930;-48
2022/04/21 07:20:38;;;;;;;;;;;14.90;76.50;;;;;;5114517;28;19931;-48
2022/04/21 07:23:04;;;;;;;;;;;14.80;78.80;;;;;;5114597;28;19923;-48
2022/04/21 07:25:30;;;;;;;;;;;14.40;81.80;;;;;;5114515;28;20293;-48
2022/04/21 07:27:55;;;;;;;;;;;13.80;82.00;;;;;;5114536;28;19989;-47
2022/04/21 07:30:21;;;;;;;;;;;13.60;83.80;;;;;;5114406;28;19986;-48
2022/04/21 07:32:46;;;;;;;;;;;13.30;85.00;;;;;;5114207;28;19924;-48
2022/04/21 07:35:12;;;;;;;;;;;13.00;88.70;;;;;;5114499;28;19924;-49
2022/04/21 07:37:37;;;;;;;;;;;13.00;90.00;;;;;;5114548;28;19924;-46
2022/04/21 07:40:06;;;;;;;;;;;12.90;88.00;;;;;;5114137;28;19931;-48
2022/04/21 07:42:32;;;;;;;;;;;13.00;89.60;;;;;;5114184;28;20327;-49
2022/04/21 07:44:58;;;;;;;;;;;13.30;90.00;;;;;;5114087;28;19924;-49
2022/04/21 07:47:23;;;;;;;;;;;13.20;87.60;;;;;;5114061;28;19967;-47
2022/04/21 07:49:49;;;;;;;;;;;13.00;86.00;;;;;;5114225;28;20012;-47
2022/04/21 07:55:15;;;;;;;;;;;13.00;86.30;;;;;;5114023;28;20274;-46
2022/04/21 07:57:41;;;;;;;;;;;13.00;86.60;;;;;;5096001;28;20318;-47
2022/04/21 08:00:08;;;;;;;;;;;13.10;86.90;;;;;;5113946;28;20363;-49
2022/04/21 08:02:33;;;;;;;;;;;13.10;86.90;;;;;;5113919;28;19931;-47
2022/04/21 08:04:59;;;;;;;;;;;13.30;86.10;;;;;;5113920;28;19923;-49
2022/04/21 08:07:24;;;;;;;;;;;13.30;84.90;;;;;;5113835;28;20069;-47
2022/04/21 08:09:50;;;;;;;;;;;13.20;84.70;;;;;;5113968;28;19924;-50
2022/04/21 08:12:15;;;;;;;;;;;13.40;84.10;;;;;;5113592;28;19931;-49
2022/04/21 08:14:41;;;;;;;;;;;13.30;83.50;;;;;;5113568;28;19961;-47
2022/04/21 08:17:06;;;;;;;;;;;13.30;82.90;;;;;;5113777;28;20263;-48
2022/04/21 08:19:32;;;;;;;;;;;13.60;83.20;;;;;;5113677;28;19924;-50
2022/04/21 08:21:58;;;;;;;;;;;13.70;85.10;;;;;;5113767;28;20019;-49
2022/04/21 08:32:43;;;;;;;;;;;14.10;81.70;;;;;;5118204;28;19930;-49
2022/04/21 08:35:15;;;;;;;;;;;14.10;81.50;;;;;;5118101;28;19931;-52
2022/04/21 08:37:42;;;;;;;;;;;13.90;80.60;;;;;;5117864;28;19924;-49
2022/04/21 08:40:08;;;;;;;;;;;14.10;81.90;;;;;;5117638;28;20360;-47
2022/04/21 08:42:40;;;;;;;;;;;14.20;79.40;;;;;;5117695;28;19987;-48
2022/04/21 08:45:09;;;;;;;;;;;14.30;80.10;;;;;;5117541;28;20459;-48
2022/04/21 08:47:39;;;;;;;;;;;14.50;80.90;;;;;;5117492;28;20390;-47
2022/04/21 08:50:05;;;;;;;;;;;14.70;79.30;;;;;;5117434;28;20014;-48
2022/04/21 08:52:32;;;;;;;;;;;14.60;77.90;;;;;;5117339;28;20023;-48
2022/04/21 08:54:57;;;;;;;;;;;14.70;77.50;;;;;;5117471;28;20007;-48
2022/04/21 08:57:23;;;;;;;;;;;14.80;76.60;;;;;;5117397;28;20357;-49
2022/04/21 08:59:48;;;;;;;;;;;15.10;77.60;;;;;;5117201;28;19963;-49
2022/04/21 09:02:14;;;;;;;;;;;15.10;75.50;;;;;;5117178;28;19931;-47
2022/04/21 09:04:41;;;;;;;;;;;15.20;75.70;;;;;;5116945;28;19931;-51
2022/04/21 09:07:14;;;;;;;;;;;15.40;75.90;;;;;;5117195;28;19927;-49
2022/04/21 09:09:39;;;;;;;;;;;15.30;75.70;;;;;;5099162;28;19924;-48
2022/04/21 09:12:05;;;;;;;;;;;15.50;74.80;;;;;;5117108;28;19924;-48
2022/04/21 09:14:30;;;;;;;;;;;15.50;74.20;;;;;;5117089;28;20024;-48
2022/04/21 09:17:02;;;;;;;;;;;15.90;74.10;;;;;;5116983;28;19931;-48
2022/04/21 09:19:28;;;;;;;;;;;15.80;72.60;;;;;;5116967;28;19924;-48
2022/04/21 09:21:53;;;;;;;;;;;15.90;71.20;;;;;;5116887;28;19924;-49
2022/04/21 09:24:20;;;;;;;;;;;15.70;70.60;;;;;;5098850;28;19930;-48
2022/04/21 09:26:46;;;;;;;;;;;16.00;71.80;;;;;;5116711;28;19924;-49
2022/04/21 09:29:15;;;;;;;;;;;16.00;71.90;;;;;;5116754;28;19924;-51
2022/04/21 09:31:42;;;;;;;;;;;16.20;72.60;;;;;;5116681;28;20014;-48
2022/04/21 09:34:08;;;;;;;;;;;16.30;71.50;;;;;;5116781;28;19969;-47
2022/04/21 09:36:35;;;;;;;;;;;16.00;73.60;;;;;;5116624;28;19935;-48
2022/04/21 09:39:03;;;;;;;;;;;15.70;70.10;;;;;;5116037;28;19923;-48
2022/04/21 09:41:29;;;;;;;;;;;15.60;69.20;;;;;;5098120;28;20015;-48
2022/04/21 09:44:04;;;;;;;;;;;15.80;69.80;;;;;;5116559;28;19930;-46
2022/04/21 09:46:33;;;;;;;;;;;16.00;69.40;;;;;;5098086;28;19930;-48
2022/04/21 09:48:59;;;;;;;;;;;16.20;68.10;;;;;;5116448;28;19927;-49
2022/04/21 09:51:27;;;;;;;;;;;16.30;68.30;;;;;;5116414;28;20018;-47
2022/04/21 09:53:53;;;;;;;;;;;16.20;67.20;;;;;;5116234;28;20014;-48
2022/04/21 09:56:29;;;;;;;;;;;16.10;66.30;;;;;;5116242;28;19924;-50
2022/04/21 09:58:54;;;;;;;;;;;16.50;66.70;;;;;;5116357;28;19927;-49
2022/04/21 10:01:20;;;;;;;;;;;16.20;66.90;;;;;;5116173;28;19925;-49
2022/04/21 10:03:45;;;;;;;;;;;16.10;65.80;;;;;;5116223;28;19931;-47
2022/04/21 10:06:12;;;;;;;;;;;15.90;66.20;;;;;;5115990;28;19931;-47
2022/04/21 10:08:40;;;;;;;;;;;15.90;65.80;;;;;;5116162;28;20018;-49
2022/04/21 10:11:06;;;;;;;;;;;15.90;65.80;;;;;;5115762;28;19931;-47
2022/04/21 10:13:32;;;;;;;;;;;16.10;67.10;;;;;;5116105;28;19977;-47
2022/04/21 10:15:58;;;;;;;;;;;16.10;65.30;;;;;;5115760;28;19924;-48
2022/04/21 10:18:24;;;;;;;;;;;16.00;65.60;;;;;;5115795;28;20449;-48
2022/04/21 10:20:52;;;;;;;;;;;16.20;66.60;;;;;;5115712;28;19928;-47
2022/04/21 10:23:18;;;;;;;;;;;15.90;65.60;;;;;;5097455;28;20349;-48
2022/04/21 10:25:43;;;;;;;;;;;16.10;66.80;;;;;;5115715;28;19978;-46
2022/04/21 10:28:27;;;;;;;;;;;16.60;69.40;;;;;;5097290;28;19982;-48
2022/04/21 10:30:56;;;;;;;;;;;16.60;65.10;;;;;;5115608;28;19968;-47
2022/04/21 10:33:41;;;;;;;;;;;16.60;65.60;;;;;;5115569;28;19970;-47
2022/04/21 10:36:07;;;;;;;;;;;16.70;65.00;;;;;;5115252;28;20022;-48
2022/04/21 10:38:32;;;;;;;;;;;16.90;64.20;;;;;;5115631;28;20064;-48
2022/04/21 10:41:06;;;;;;;;;;;17.00;63.70;;;;;;5115345;28;20381;-47
2022/04/21 10:43:50;;;;;;;;;;;17.30;64.90;;;;;;5115345;28;19924;-48
2022/04/21 10:46:22;;;;;;;;;;;17.30;63.20;;;;;;5115260;28;19923;-47
2022/04/21 10:48:49;;;;;;;;;;;17.40;62.10;;;;;;5115142;28;19924;-51
2022/04/21 10:51:33;;;;;;;;;;;17.30;62.50;;;;;;5114222;28;19924;-48
2022/04/21 10:59:29;;;;;;;;;;;17.20;61.00;;;;;;5115004;28;19977;-46
2022/04/21 11:01:55;;;;;;;;;;;17.20;61.90;;;;;;5114994;28;20360;-50
2022/04/21 11:04:22;;;;;;;;;;;17.10;62.70;;;;;;5115058;28;19975;-53
2022/04/21 11:06:49;;;;;;;;;;;16.90;63.40;;;;;;5096740;28;19923;-49
2022/04/21 11:09:33;;;;;;;;;;;17.10;63.60;;;;;;5114808;28;19931;-47
2022/04/21 11:11:58;;;;;;;;;;;17.20;63.50;;;;;;5096448;28;19924;-49
2022/04/21 11:14:27;;;;;;;;;;;17.10;62.30;;;;;;5114612;28;20010;-47
2022/04/21 11:16:53;;;;;;;;;;;17.00;61.90;;;;;;5079531;28;20412;-48
2022/04/21 11:19:31;;;;;;;;;;;17.30;64.10;;;;;;5114670;28;19923;-49
2022/04/21 11:21:57;;;;;;;;;;;17.50;63.10;;;;;;5114517;28;20308;-49
2022/04/21 11:24:23;;;;;;;;;;;17.40;61.30;;;;;;5114594;28;19977;-50
2022/04/21 11:26:53;;;;;;;;;;;17.20;62.00;;;;;;5114505;28;19924;-47
2022/04/21 11:29:18;;;;;;;;;;;17.30;62.40;;;;;;5115106;28;19924;-49
2022/04/21 11:31:44;;;;;;;;;;;17.30;61.30;;;;;;5114377;28;19931;-49
2022/04/21 11:34:09;;;;;;;;;;;17.50;61.80;;;;;;5114355;28;19948;-51
2022/04/21 11:36:36;;;;;;;;;;;17.30;60.40;;;;;;5096052;28;19954;-50
2022/04/21 11:39:08;;;;;;;;;;;17.20;60.00;;;;;;5114339;28;19924;-48
2022/04/21 11:41:40;;;;;;;;;;;17.30;59.90;;;;;;5114216;28;19972;-50
2022/04/21 11:44:05;;;;;;;;;;;17.30;61.40;;;;;;5114217;28;19984;-48
2022/04/21 11:46:31;;;;;;;;;;;17.30;61.50;;;;;;5095921;28;20433;-48
2022/04/21 11:48:58;;;;;;;;;;;17.50;61.70;;;;;;5114169;28;19924;-48
2022/04/21 11:51:25;;;;;;;;;;;17.60;61.40;;;;;;5114178;28;20322;-49
2022/04/21 11:53:50;;;;;;;;;;;17.60;60.20;;;;;;5114134;28;20389;-49
2022/04/21 11:56:16;;;;;;;;;;;17.70;60.60;;;;;;5096019;28;19969;-47
2022/04/21 11:58:42;;;;;;;;;;;17.60;60.10;;;;;;5114004;28;20010;-50
2022/04/21 12:06:55;;;;;;;;;;;17.20;61.80;;;;;;5113964;28;19931;-48
2022/04/21 12:09:22;;;;;;;;;;;16.80;62.00;;;;;;5095772;28;19924;-48
2022/04/21 12:11:50;;;;;;;;;;;17.00;62.60;;;;;;5113817;28;20285;-47
2022/04/21 12:14:16;;;;;;;;;;;17.30;63.60;;;;;;5113621;28;19931;-48
2022/04/21 12:16:45;;;;;;;;;;;17.30;62.70;;;;;;5095692;28;20308;-49
2022/04/21 12:19:15;;;;;;;;;;;17.30;62.20;;;;;;5113862;28;19947;-51
2022/04/21 12:21:42;;;;;;;;;;;17.30;62.20;;;;;;5113759;28;20010;-48
2022/04/21 12:24:10;;;;;;;;;;;17.50;63.20;;;;;;5114194;28;19927;-47
2022/04/21 12:26:36;;;;;;;;;;;17.60;62.90;;;;;;5113625;28;20385;-48
2022/04/21 12:29:01;;;;;;;;;;;17.70;61.40;;;;;;5113847;28;19924;-47
2022/04/21 12:31:27;;;;;;;;;;;17.60;60.10;;;;;;5113734;28;20274;-51
2022/04/21 12:33:52;;;;;;;;;;;17.70;61.00;;;;;;5113611;28;19932;-49
2022/04/21 12:36:27;;;;;;;;;;;18.00;60.50;;;;;;5113700;28;19970;-47
2022/04/21 12:39:00;;;;;;;;;;;17.80;60.00;;;;;;5113627;28;19928;-49
2022/04/21 12:41:26;;;;;;;;;;;17.70;58.40;;;;;;5113578;28;20022;-47
2022/04/21 12:43:52;;;;;;;;;;;18.00;59.10;;;;;;5113730;28;20433;-49
2022/04/21 12:46:19;;;;;;;;;;;18.20;68.80;;;;;;5113601;28;19946;-47
2022/04/21 12:48:45;;;;;;;;;;;;;;;;;;5113564;28;19924;-47
2022/04/21 12:51:16;;;;;;;;;;;18.40;57.80;;;;;;5113469;28;19950;-47
2022/04/21 12:53:42;;;;;;;;;;;18.40;58.20;;;;;;5113435;28;19931;-50
2022/04/21 12:56:09;;;;;;;;;;;18.70;59.20;;;;;;5113601;28;19928;-49
2022/04/21 12:58:35;;;;;;;;;;;18.30;57.50;;;;;;5095547;28;19927;-48
2022/04/21 13:01:00;;;;;;;;;;;18.10;58.10;;;;;;5113471;28;19924;-47
2022/04/21 13:03:29;;;;;;;;;;;18.00;59.10;;;;;;5113316;28;20366;-48
2022/04/21 13:05:55;;;;;;;;;;;18.00;58.50;;;;;;5113395;28;19977;-48
2022/04/21 13:08:22;;;;;;;;;;;18.20;59.10;;;;;;5113374;28;19924;-47
2022/04/21 13:10:48;;;;;;;;;;;18.10;58.50;;;;;;5113375;28;19923;-47
2022/04/21 13:13:14;;;;;;;;;;;18.10;59.00;;;;;;5114329;28;19974;-47
2022/04/21 13:15:39;;;;;;;;;;;18.30;59.40;;;;;;5117229;28;19924;-47
2022/04/21 13:18:05;;;;;;;;;;;18.50;59.40;;;;;;5117251;28;19974;-48
2022/04/21 13:23:14;;;;;;;;;;;18.60;58.40;;;;;;5117037;28;20313;-49
2022/04/21 13:25:40;;;;;;;;;;;18.80;59.20;;;;;;5116876;28;19923;-49
2022/04/21 13:28:06;;;;;;;;;;;18.50;57.80;;;;;;5116967;28;20297;-48
2022/04/21 13:30:31;;;;;;;;;;;18.20;57.90;;;;;;5116955;28;19924;-49
2022/04/21 13:35:41;;;;;;;;;;;17.90;59.10;;;;;;5116750;28;19924;-53
2022/04/21 13:38:06;;;;;;;;;;;18.20;59.30;;;;;;5116733;28;19924;-49
2022/04/21 13:40:32;;;;;;;;;;;18.00;59.90;;;;;;5116617;28;19930;-52
2022/04/21 13:42:57;;;;;;;;;;;18.20;60.00;;;;;;5116666;28;19992;-52
2022/04/21 13:45:22;;;;;;;;;;;18.30;59.40;;;;;;5116679;28;19924;-50
2022/04/21 13:47:48;;;;;;;;;;;18.40;58.30;;;;;;5116270;28;19993;-49
2022/04/21 13:50:13;;;;;;;;;;;18.80;59.90;;;;;;5116296;28;19931;-51
2022/04/21 13:52:41;;;;;;;;;;;19.00;59.70;;;;;;5116059;28;20007;-45
2022/04/21 13:55:07;;;;;;;;;;;19.20;60.10;;;;;;5116722;28;19924;-46
2022/04/21 13:57:32;;;;;;;;;;;19.10;58.60;;;;;;5116305;28;19924;-50
2022/04/21 13:59:58;;;;;;;;;;;19.00;58.80;;;;;;5116126;28;19924;-47
2022/04/21 14:02:23;;;;;;;;;;;18.80;57.50;;;;;;5116630;28;19946;-51
2022/04/21 14:04:49;;;;;;;;;;;18.80;59.10;;;;;;5116154;28;19924;-53
2022/04/21 14:07:14;;;;;;;;;;;18.50;58.20;;;;;;5115920;28;19923;-47
2022/04/21 14:09:40;;;;;;;;;;;18.50;59.00;;;;;;5116379;28;19969;-51
2022/04/21 14:12:05;;;;;;;;;;;18.70;60.10;;;;;;5116139;28;19924;-50
2022/04/21 14:14:32;;;;;;;;;;;18.70;60.50;;;;;;5116024;28;19976;-49
2022/04/21 14:16:57;;;;;;;;;;;18.40;58.70;;;;;;5115719;28;19931;-47
2022/04/21 14:19:23;;;;;;;;;;;18.30;59.70;;;;;;5115906;28;19924;-49
2022/04/21 14:21:48;;;;;;;;;;;18.20;59.30;;;;;;5097779;28;19931;-51
2022/04/21 14:24:14;;;;;;;;;;;18.20;60.40;;;;;;5115835;28;19930;-48
2022/04/21 14:26:39;;;;;;;;;;;18.30;61.70;;;;;;5115549;28;19924;-51
2022/04/21 14:29:05;;;;;;;;;;;18.20;60.70;;;;;;5115626;28;19976;-48
2022/04/21 14:31:31;;;;;;;;;;;18.10;61.20;;;;;;5115603;28;19959;-49
2022/04/21 14:33:56;;;;;;;;;;;18.00;60.60;;;;;;5097181;28;20046;-47
2022/04/21 14:36:22;;;;;;;;;;;18.00;61.10;;;;;;5115625;28;19924;-51
2022/04/21 14:44:16;;;;;;;;;;;18.30;60.80;;;;;;5115368;28;20392;-50
2022/04/21 14:46:44;;;;;;;;;;;18.70;61.80;;;;;;5115410;28;19924;-51
2022/04/21 14:49:10;;;;;;;;;;;19.00;61.70;;;;;;5115340;28;19930;-50
2022/04/21 14:51:36;;;;;;;;;;;18.90;60.70;;;;;;5115154;28;19984;-49
2022/04/21 14:54:02;;;;;;;;;;;19.00;60.60;;;;;;5115153;28;19975;-51
2022/04/21 14:56:28;;;;;;;;;;;19.00;59.50;;;;;;5115304;28;20014;-50
2022/04/21 14:58:53;;;;;;;;;;;18.90;59.60;;;;;;5115022;28;20425;-50
2022/04/21 15:01:19;;;;;;;;;;;18.70;59.30;;;;;;5114977;28;19966;-48
2022/04/21 15:03:45;;;;;;;;;;;19.00;60.80;;;;;;5115045;28;20373;-50
2022/04/21 15:06:11;;;;;;;;;;;19.10;60.70;;;;;;5114987;28;20332;-48
2022/04/21 15:08:37;;;;;;;;;;;19.00;59.80;;;;;;5114769;28;19925;-47
2022/04/21 15:11:04;;;;;;;;;;;19.00;59.80;;;;;;5114772;28;20274;-52
2022/04/21 15:13:29;;;;;;;;;;;19.40;60.40;;;;;;5096752;28;20255;-49
2022/04/21 15:15:55;;;;;;;;;;;19.50;59.90;;;;;;5096404;28;19938;-51
2022/04/21 15:18:20;;;;;;;;;;;19.50;59.20;;;;;;5114823;28;19924;-53
2022/04/21 15:20:46;;;;;;;;;;;19.40;59.40;;;;;;5114614;28;19931;-50